Rosebud, Texas
Current Conditions -  °F | °C
As of 11:35 AM on Thursday 30 Oct 2014 (Local Time) from KT35 Reporting Station
Broken Clouds Broken Clouds  
Wind Chill: 21°   Ceiling: 10000
Heat Index: 21°   Visibility: 10mi
Dew Point: 10°   Wind: 6mph
Humidity: 51%   Direction: 150°SSE
Pressure: 30.17"   Gusts: NA
Location:  31.07°N, 96.98°W
Report Text: KT35 301635Z AUTO 15005KT 10SM SCT050 SCT065 BKN100 21/10 A3017 RMK AO2 T02060100
Loading
Personal Weather Stations






























Interactive Weather Map
Tropical Storm Tracking
New forecast layout! Learn more

10-Day Weather Forecast

Advertisements
Track Severe Weather on mobile